Date,TemperatureHighF,TemperatureAvgF,TemperatureLowF,DewpointHighF,DewpointAvgF,DewpointLowF,HumidityHigh,HumidityAvg,HumidityLow,PressureMaxIn,PressureMinIn,WindSpeedMaxMPH,WindSpeedAvgMPH,GustSpeedMaxMPH,PrecipitationSumIn
2013-1-1,20,14,9,11,7,2,83,73,61,30.18,30.03,13,3,13,0.00
2013-1-2,23,19,11,20,15,4,89,83,76,30.11,30.02,14,6,15,0.00
2013-1-3,28,22,16,22,17,13,89,83,70,30.05,29.92,21,5,21,0.00
2013-1-4,36,25,17,23,18,12,85,74,56,30.11,29.83,22,6,22,0.00
2013-1-5,35,24,14,32,21,11,93,88,82,30.16,29.82,15,4,15,0.00
2013-1-6,30,24,14,28,19,11,94,82,61,30.22,29.79,16,2,17,0.00
2013-1-7,34,30,22,30,25,19,90,81,68,30.22,29.83,29,13,29,0.00
2013-1-8,36,32,25,35,29,23,97,89,84,30.09,29.83,16,4,16,0.00
2013-1-9,39,35,28,34,27,22,93,76,55,30.41,29.74,23,6,26,0.00
2013-1-10,39,30,22,34,27,19,97,88,77,30.48,30.00,9,2,9,0.01
2013-1-11,37,35,34,37,34,32,99,98,93,30.00,29.56,11,2,11,0.36
2013-1-12,41,35,28,38,32,20,99,88,71,29.92,29.49,29,8,30,0.01
2013-1-13,28,24,18,22,18,13,85,78,73,30.03,29.85,11,2,11,0.00
2013-1-14,25,16,9,17,9,4,86,74,57,30.36,30.03,18,7,18,0.00
2013-1-15,29,19,6,23,13,3,87,76,60,30.38,29.99,25,10,25,0.00
2013-1-16,31,26,21,26,20,10,91,77,56,30.02,29.60,28,10,28,0.00
2013-1-17,20,11,3,14,2,-4,83,66,44,30.36,30.02,19,2,21,0.00
2013-1-18,22,13,3,20,9,-3,93,85,71,30.38,29.76,16,3,17,0.00
2013-1-19,36,25,15,32,22,6,97,88,63,29.82,29.44,21,3,32,0.00
2013-1-20,15,8,0,6,-1,-5,80,66,49,30.18,29.65,26,4,26,0.00
2013-1-21,4,-2,-10,-5,-13,-20,78,61,41,30.20,30.03,21,5,22,0.00
2013-1-22,5,-5,-14,-10,-14,-19,77,64,46,30.31,30.19,17,3,17,0.00
2013-1-23,11,2,-9,5,-5,-14,83,72,56,30.35,30.07,14,4,16,0.00
2013-1-24,15,8,-1,4,0,-5,87,71,53,30.67,30.35,10,2,12,0.00
2013-1-25,22,14,10,17,11,2,93,87,64,30.42,29.93,7,2,7,0.00
2013-1-26,31,20,13,18,15,10,90,81,58,30.36,30.07,12,2,12,0.02
2013-1-27,32,27,20,31,24,16,98,90,80,30.36,29.97,14,7,14,0.00
2013-1-28,36,33,32,35,32,31,99,97,91,29.97,29.79,13,2,13,0.17
2013-1-29,39,35,32,39,34,31,99,97,94,29.91,29.47,16,4,16,0.38
2013-1-30,34,26,15,32,24,13,96,92,85,29.52,29.26,22,4,22,0.00
2013-1-31,17,13,8,13,7,3,91,78,61,29.94,29.36,25,4,25,0.00
2013-2-1,12,6,1,4,-1,-6,88,75,57,30.17,29.94,17,4,17,0.00
2013-2-2,19,6,-4,3,-3,-9,82,66,44,30.12,30.01,12,2,12,0.00
2013-2-3,19,8,2,8,0,-3,86,73,51,30.01,29.86,18,3,21,0.00
2013-2-4,18,7,-4,7,-1,-7,87,71,46,30.03,29.91,12,2,14,0.00
2013-2-5,28,14,2,16,9,-2,92,80,58,30.05,29.72,15,4,15,0.00
2013-2-6,22,14,0,18,10,-3,94,87,72,30.23,30.05,12,2,13,0.00
2013-2-7,22,21,19,20,19,17,95,93,90,30.20,30.12,11,2,13,0.00
2013-2-8,30,20,3,19,14,0,91,77,50,30.40,30.17,17,2,17,0.00
2013-2-9,26,12,-4,24,10,-7,92,88,81,30.41,30.14,12,3,12,0.00
2013-2-10,35,29,22,35,28,20,99,93,88,30.14,29.36,25,6,25,0.15
2013-2-11,37,32,25,36,30,19,99,91,75,29.80,29.26,22,6,24,0.33
2013-2-12,28,24,21,21,19,16,89,80,66,29.96,29.79,16,5,16,0.00
2013-2-13,33,26,18,29,24,15,96,90,79,29.79,29.62,11,5,11,0.00
2013-2-14,36,27,18,32,24,12,97,88,73,29.94,29.62,17,2,19,0.06
2013-2-15,23,17,8,14,9,2,86,72,51,30.17,29.93,13,2,13,0.00
2013-2-16,23,11,1,10,4,-2,88,73,48,30.19,30.09,13,1,15,0.00
2013-2-17,20,9,-4,11,3,-7,90,79,59,30.21,30.02,14,3,14,0.00
2013-2-18,34,30,16,33,27,8,98,90,70,30.02,29.38,20,7,20,0.03
2013-2-19,32,20,11,32,17,5,98,85,73,29.97,29.29,12,2,12,0.00
2013-2-20,21,15,11,14,9,5,83,77,71,30.38,29.97,18,3,18,0.00
2013-2-21,26,21,14,21,18,10,91,87,80,30.46,30.29,16,2,17,0.00
2013-2-22,27,23,19,25,22,17,96,93,89,30.29,29.79,23,2,23,0.00
2013-2-23,31,24,13,27,21,11,96,90,76,29.82,29.75,10,1,10,0.00
2013-2-24,40,30,25,30,26,24,95,87,62,30.11,29.82,9,1,10,0.15
2013-2-25,35,29,24,30,26,22,96,90,79,30.16,30.10,7,1,7,0.03
2013-2-26,36,32,29,31,28,25,97,86,73,30.13,29.84,16,2,17,0.03
2013-2-27,34,31,29,32,29,24,97,91,83,29.84,29.72,15,3,15,0.08
2013-2-28,32,29,24,30,24,18,93,83,71,30.16,29.79,20,4,20,0.00
2013-3-1,30,23,14,19,15,10,85,74,47,30.29,30.15,20,3,20,0.01
2013-3-2,31,19,10,17,12,7,93,74,52,30.25,30.17,14,2,14,0.00
2013-3-3,33,18,7,17,10,3,90,71,46,30.17,30.08,11,1,11,0.01
2013-3-4,31,19,7,22,14,5,92,82,59,30.20,30.13,10,2,10,0.00
2013-3-5,36,23,12,24,17,9,95,77,51,30.18,30.03,14,2,14,0.00
2013-3-6,33,30,28,28,26,24,90,86,82,30.23,30.11,9,1,9,0.00
2013-3-8,34,21,9,27,18,7,96,89,75,30.50,30.32,11,5,11,0.01
2013-3-9,35,30,19,33,28,18,97,95,87,30.31,29.85,16,6,16,0.01
2013-3-10,39,34,32,38,33,31,99,97,92,29.90,29.78,13,5,13,0.26
2013-3-11,36,33,28,35,31,25,99,95,86,29.80,29.45,18,10,18,0.32
2013-3-12,30,25,18,25,19,13,89,80,66,29.89,29.56,15,11,15,0.00
2013-3-13,35,24,17,18,14,7,94,69,32,30.24,29.89,20,9,20,0.02
2013-3-14,33,25,13,26,19,8,85,78,60,30.24,29.94,22,7,22,0.01
2013-3-15,33,28,19,28,19,12,93,71,49,30.00,29.86,16,2,16,0.01
2013-3-16,27,22,12,20,14,8,92,73,51,30.09,29.94,19,2,19,0.00
2013-3-17,25,17,5,16,8,0,85,69,53,30.35,30.09,15,3,15,0.01
2013-3-18,32,27,12,30,24,9,98,86,73,30.17,29.45,24,10,27,0.00
2013-3-19,34,25,19,27,18,11,97,77,52,29.85,29.42,29,6,29,0.00
2013-3-20,27,19,8,15,11,4,88,71,54,29.96,29.84,20,4,20,0.00
2013-3-21,32,24,16,18,15,12,85,69,52,30.01,29.91,15,3,17,0.00
2013-3-22,37,26,14,25,19,11,88,77,60,30.08,29.98,10,2,11,0.00
2013-3-23,35,30,26,28,24,21,83,77,65,30.14,30.07,10,2,11,0.00
2013-3-24,37,31,26,26,23,21,87,73,53,30.13,29.89,15,2,15,0.00
2013-3-25,40,31,23,29,24,21,92,77,53,30.07,29.89,14,2,15,0.00
2013-3-26,44,34,27,33,27,21,94,76,48,30.19,30.06,17,2,17,0.00
2013-3-27,49,36,26,25,22,19,81,59,32,30.24,30.16,16,2,16,0.00
2013-3-28,44,33,25,32,24,17,83,70,41,30.28,30.23,7,1,8,0.00
2013-3-29,40,31,22,32,25,18,87,78,49,30.30,30.18,9,2,9,0.00
2013-3-30,36,32,26,34,29,22,98,89,74,30.18,29.75,19,4,21,0.25
2013-3-31,47,36,26,37,29,17,98,78,40,29.82,29.54,26,4,26,0.03
2013-4-1,34,25,18,22,13,8,85,62,35,30.09,29.81,21,3,21,0.00
2013-4-2,39,27,16,15,11,6,74,54,27,30.27,30.07,19,3,20,0.00
2013-4-3,35,28,16,27,17,9,82,65,43,30.44,30.20,20,6,22,0.00
2013-4-4,51,36,30,35,29,24,87,75,36,30.21,29.88,24,8,24,0.00
2013-4-5,39,31,23,28,23,17,88,71,44,30.25,30.04,18,3,18,0.00
2013-4-6,37,34,30,35,31,25,97,88,73,30.18,29.48,22,8,23,0.25
2013-4-7,44,37,35,35,33,30,98,85,62,30.00,29.44,16,2,16,0.13
2013-4-8,38,35,31,35,34,30,98,93,86,30.02,29.82,15,2,17,0.22
2013-4-9,40,35,31,39,32,26,99,92,80,30.16,30.02,14,2,17,0.00
2013-4-10,45,36,31,33,25,14,85,68,35,30.17,30.09,18,3,18,0.00
2013-4-11,34,32,28,28,24,21,96,73,63,30.12,29.79,23,4,27,0.00
2013-4-12,33,30,27,32,28,26,98,96,94,29.80,29.64,21,2,22,0.09
2013-4-13,39,31,25,33,28,25,98,90,64,29.93,29.69,12,1,14,0.18
2013-4-14,38,30,20,33,27,18,96,89,66,30.06,29.84,16,3,18,0.07
2013-4-15,50,39,35,40,34,27,98,84,43,29.85,29.58,25,4,25,0.27
2013-4-16,50,40,33,33,30,28,90,69,45,30.34,29.85,20,3,21,0.00
2013-4-17,42,35,26,36,32,25,97,87,74,30.41,30.03,13,3,15,0.00
2013-4-18,41,38,35,40,37,33,98,96,80,30.04,29.26,16,1,18,0.33
2013-4-19,41,34,25,40,29,16,99,84,63,29.74,29.08,33,10,37,0.01
2013-4-20,40,29,21,25,18,12,81,64,36,30.43,29.74,17,3,17,0.00
2013-4-21,37,34,27,34,29,21,93,81,73,30.53,30.29,19,8,20,0.00
2013-4-22,40,38,36,40,36,34,98,94,85,30.29,30.10,13,3,13,0.42
2013-4-23,42,37,32,38,34,29,99,90,70,30.10,29.84,11,2,12,0.17
2013-4-24,41,35,27,36,31,25,94,84,57,29.97,29.88,15,3,15,0.00
2013-4-25,51,41,34,38,34,25,96,77,36,30.21,29.81,22,4,22,0.10
2013-4-26,46,40,35,41,36,28,94,84,64,30.25,30.09,14,4,14,0.05
2013-4-27,49,42,34,46,40,33,97,91,85,30.16,30.02,10,3,10,0.00
2013-4-28,54,46,36,44,41,35,95,81,67,30.01,29.78,8,2,8,0.00
2013-4-29,48,44,42,47,42,39,98,93,79,29.81,29.77,14,4,14,0.07
2013-4-30,54,49,43,51,47,42,99,93,87,29.79,29.68,25,6,25,0.17
2013-5-1,69,56,40,52,45,32,93,68,43,30.32,29.77,16,2,18,0.00
2013-5-2,52,40,34,40,35,32,94,80,62,30.33,30.24,18,4,20,0.16
2013-5-3,54,41,34,44,37,32,96,84,66,30.26,30.11,15,3,15,0.04
2013-5-4,71,50,38,52,42,36,95,78,46,30.13,30.04,12,2,12,0.03
2013-5-5,66,49,37,50,41,35,94,75,44,30.12,30.02,10,2,12,0.00
2013-5-6,62,49,36,52,41,34,93,75,48,30.10,29.98,9,2,9,0.00
2013-5-7,67,54,42,49,42,38,87,67,40,30.08,29.98,7,1,7,0.00
2013-5-8,62,53,40,50,44,36,86,71,55,30.01,29.94,6,1,6,0.00
2013-5-9,64,51,37,47,42,35,93,71,53,30.10,29.92,19,2,20,0.10
2013-5-10,53,42,34,42,36,32,94,82,53,30.07,29.93,14,3,16,0.15
2013-5-11,48,40,34,40,34,27,97,81,44,29.94,29.75,20,3,29,0.21
2013-5-12,44,37,29,32,26,21,91,67,42,30.09,29.84,20,3,20,0.00
2013-5-13,51,40,28,38,29,20,79,67,31,30.14,29.95,18,6,19,0.00
2013-5-14,50,45,42,44,40,36,92,82,72,29.96,29.52,17,7,17,0.01
2013-5-15,80,63,42,49,40,28,94,52,17,29.72,29.44,25,4,26,0.00
2013-5-16,69,56,44,46,40,36,76,56,32,30.07,29.71,18,2,18,0.00
2013-5-17,54,47,40,46,41,36,90,81,73,30.17,30.06,7,1,7,0.00
2013-5-18,55,51,45,50,47,42,92,86,78,30.15,29.96,12,2,13,0.04
2013-5-19,60,54,49,55,49,45,91,84,75,29.96,29.81,15,2,15,0.00
2013-5-20,60,56,52,57,54,50,96,92,85,29.81,29.65,16,3,16,0.03
2013-5-21,55,53,50,54,52,49,99,98,93,29.70,29.61,17,3,17,0.27
2013-5-22,57,52,48,54,50,48,100,95,86,29.82,29.67,15,2,15,0.14
2013-5-23,50,44,37,49,36,30,96,73,51,30.30,29.82,25,4,25,0.13
2013-5-24,55,43,30,45,37,29,96,79,51,30.42,30.30,14,3,14,0.00
2013-5-25,56,48,35,47,40,33,97,77,54,30.44,30.31,6,2,6,0.00
2013-5-26,59,49,37,47,40,34,89,73,48,30.36,30.20,7,2,7,0.00
2013-5-27,63,53,40,51,45,36,95,75,50,30.22,29.94,11,4,12,0.00
2013-5-28,54,53,51,52,48,44,98,85,69,29.94,29.71,13,2,14,0.00
2013-5-29,61,56,52,58,54,51,99,95,88,29.85,29.73,13,4,13,0.00
2013-5-30,65,59,52,60,56,51,97,91,79,29.84,29.74,12,4,13,0.00
2013-5-31,63,58,54,60,56,53,98,94,87,29.77,29.65,14,6,14,0.00
2013-6-1,65,57,47,61,55,46,99,94,82,29.67,29.57,28,2,29,0.67
2013-6-2,60,48,42,46,42,39,97,81,47,30.01,29.65,22,3,22,0.11
2013-6-3,63,50,39,52,44,37,97,79,41,30.11,29.99,16,4,16,0.00
2013-6-4,60,50,37,47,40,33,93,69,38,30.22,30.11,8,2,8,0.00
2013-6-5,56,53,49,50,46,38,88,79,57,30.17,30.05,19,2,19,0.02
2013-6-6,68,56,49,50,45,35,92,68,32,30.06,29.96,12,1,12,0.04
2013-6-7,68,57,46,57,48,41,86,74,53,29.99,29.89,9,1,9,0.00
2013-6-8,66,57,48,56,50,43,89,78,63,30.01,29.90,8,1,8,0.00
2013-6-9,70,59,46,56,52,44,97,78,58,30.06,29.91,16,3,18,0.00
2013-6-10,66,61,57,59,56,52,95,82,71,29.91,29.78,15,2,18,0.00
2013-6-11,68,59,56,62,57,55,99,95,81,29.85,29.77,12,2,12,0.00
2013-6-12,70,62,51,62,57,50,99,85,59,29.88,29.74,5,1,5,0.01
2013-6-13,68,60,53,55,52,47,89,73,56,30.04,29.74,17,2,21,0.00
2013-6-14,65,57,45,54,48,42,87,71,45,30.14,29.99,13,3,13,0.00
2013-6-15,62,59,55,58,53,45,94,81,60,29.99,29.76,11,3,11,0.04
2013-6-16,86,71,58,62,56,47,99,66,27,29.83,29.71,25,3,25,0.01
2013-6-17,67,58,46,58,52,42,94,79,59,30.03,29.78,12,2,12,0.00
2013-6-18,65,54,40,54,45,37,93,74,50,30.12,30.03,9,2,9,0.00
2013-6-19,64,57,43,57,50,39,90,77,68,30.14,30.03,12,4,12,0.00
2013-6-20,70,63,58,60,57,51,88,80,71,30.09,30.04,12,4,12,0.00
2013-6-21,66,62,60,64,59,57,98,91,85,30.10,29.85,20,4,21,0.17
2013-6-22,69,63,60,64,61,59,98,92,81,30.05,29.91,15,2,15,0.00
2013-6-23,68,63,60,66,61,59,98,95,85,29.97,29.78,10,3,10,0.03
2013-6-24,75,69,64,69,66,64,99,92,79,29.90,29.76,13,4,13,0.00
2013-6-25,82,70,66,72,67,65,98,91,67,29.78,29.74,12,4,12,0.00
2013-6-26,74,67,61,68,65,60,99,93,81,29.77,29.68,14,2,14,0.27
2013-6-27,71,66,63,67,64,62,99,95,88,29.74,29.63,17,2,18,1.41
2013-6-28,72,65,60,67,62,59,99,92,81,29.65,29.57,7,1,10,0.00
2013-6-29,73,64,57,61,56,45,95,76,56,29.83,29.63,16,2,16,0.01
2013-6-30,80,67,52,53,47,44,77,52,30,30.03,29.83,13,1,13,0.00
2013-7-1,75,62,50,63,51,41,82,67,39,30.15,30.03,14,2,14,0.00
2013-7-2,71,61,45,60,50,41,84,68,45,30.16,30.06,9,2,9,0.00
2013-7-3,74,65,54,63,55,50,91,72,51,30.08,29.98,8,2,8,0.00
2013-7-4,72,68,63,67,64,58,95,87,76,30.00,29.93,14,5,14,0.00
2013-7-5,74,70,65,69,66,62,95,88,77,29.98,29.89,15,6,16,0.00
2013-7-6,75,71,67,69,67,65,95,88,80,29.94,29.87,12,6,13,0.00
2013-7-7,76,71,68,70,68,66,96,92,80,29.90,29.83,11,4,11,0.00
2013-7-8,74,70,65,71,68,65,99,93,86,29.96,29.85,17,2,17,1.67
2013-7-9,70,66,61,70,65,60,99,97,93,29.96,29.65,16,4,17,0.18
2013-7-10,76,69,62,70,60,53,98,74,47,29.91,29.65,18,3,18,0.00
2013-7-11,76,65,54,66,58,52,92,79,52,30.07,29.91,12,3,12,0.00
2013-7-12,73,68,58,68,62,54,93,82,72,30.12,30.03,10,4,11,0.00
2013-7-13,74,70,68,69,66,63,92,87,81,30.11,30.03,12,6,12,0.00
2013-7-14,77,72,62,72,68,60,96,86,72,30.19,30.10,10,3,10,0.00
2013-7-15,80,75,68,74,71,66,97,88,79,30.24,30.17,8,2,8,0.00
2013-7-16,80,76,68,76,73,66,97,91,81,30.21,30.10,15,3,15,0.02
2013-7-17,85,78,74,76,74,72,97,88,72,30.16,30.03,17,4,18,0.00
2013-7-18,80,75,72,76,73,69,96,91,85,30.06,29.70,14,3,15,0.16
2013-7-19,87,79,68,76,67,58,95,68,49,29.71,29.55,19,4,19,0.21
2013-7-20,75,66,51,59,52,46,83,62,40,30.00,29.70,15,2,15,0.00
2013-7-21,67,58,47,57,51,45,94,79,55,30.03,29.90,8,1,8,0.00
2013-7-22,76,68,54,72,64,53,96,88,74,29.90,29.55,14,5,14,0.00
2013-7-23,72,62,51,65,51,42,90,69,42,29.95,29.61,19,2,19,0.00
2013-7-24,70,60,47,61,53,46,95,79,58,30.05,29.95,13,4,13,0.00
2013-7-25,72,66,60,66,61,56,96,84,73,29.99,29.85,23,8,23,1.29
2013-7-26,67,63,52,65,61,51,98,95,89,29.90,29.72,13,3,13,3.03
2013-7-27,60,55,49,54,50,48,96,85,68,29.85,29.78,10,2,11,0.00
2013-7-28,57,52,46,55,51,45,97,94,89,29.91,29.75,13,2,15,0.19
2013-7-29,68,59,50,63,56,48,97,90,71,30.12,29.91,11,3,13,0.00
2013-7-30,68,64,61,65,62,59,96,91,80,30.15,30.04,11,4,11,0.04
2013-7-31,74,67,63,68,64,58,96,90,78,30.04,29.81,18,4,18,0.00
2013-8-1,76,65,56,64,58,54,94,79,51,29.86,29.81,14,2,15,0.00
2013-8-2,78,66,56,62,57,51,98,76,41,29.89,29.75,18,2,18,0.09
2013-8-3,74,63,53,62,55,51,93,77,51,30.10,29.89,13,1,13,0.04
2013-8-4,68,60,50,59,53,49,97,78,58,30.19,30.06,11,3,11,0.00
2013-8-5,66,62,55,63,57,52,94,86,72,30.07,29.80,15,6,15,0.01
2013-8-6,70,66,62,67,64,61,97,95,90,29.81,29.70,9,3,9,0.00
2013-8-7,74,65,54,66,61,50,99,87,61,29.96,29.61,12,1,12,0.42
2013-8-8,71,62,51,65,56,48,90,82,57,30.00,29.93,10,3,10,0.00
2013-8-9,75,66,56,63,57,49,97,75,42,30.01,29.86,23,2,23,0.03
2013-8-10,70,62,52,65,58,51,95,85,69,30.10,30.01,11,3,11,0.00
2013-8-11,71,63,50,66,59,49,98,86,76,30.06,29.95,15,3,15,0.00
2013-8-12,71,62,50,66,59,47,97,88,73,29.99,29.82,19,3,19,0.29
2013-8-13,66,55,45,55,47,43,96,77,47,30.13,29.99,17,1,18,0.02
2013-8-14,70,58,45,59,50,44,95,76,43,30.17,30.06,15,3,15,0.00
2013-8-15,71,60,48,65,56,46,98,86,67,30.07,30.00,8,2,11,0.00
2013-8-16,75,64,52,67,60,51,98,88,71,30.13,30.06,6,2,6,0.01
2013-8-17,74,67,58,67,62,55,92,85,75,30.18,30.10,9,3,9,0.00
2013-8-18,74,67,60,68,63,56,93,85,71,30.15,30.00,9,3,9,0.00
2013-8-19,72,67,59,67,63,57,93,88,82,30.01,29.89,15,6,15,0.00
2013-8-20,73,68,64,68,66,63,96,91,83,29.97,29.89,9,4,9,0.00
2013-8-21,74,69,65,70,66,63,97,92,75,29.91,29.68,31,6,31,0.40
2013-8-22,82,70,58,68,58,51,99,71,36,30.10,29.91,12,1,12,0.01
2013-8-23,71,63,51,65,58,49,94,84,63,30.18,30.10,9,3,9,0.00
2013-8-24,74,69,60,69,64,58,97,85,69,30.20,30.08,14,6,14,0.00
2013-8-25,75,71,68,72,68,65,94,90,83,30.09,29.89,19,9,21,0.03
2013-8-26,80,74,70,73,70,68,97,89,73,30.01,29.80,31,3,32,0.27
2013-8-27,72,70,69,71,70,68,99,98,94,29.93,29.78,21,2,21,1.94
2013-8-28,81,73,66,75,70,66,99,92,77,29.99,29.83,7,1,8,0.00
2013-8-29,78,72,65,74,70,64,99,94,86,30.02,29.83,18,3,19,0.04
2013-8-30,78,72,63,73,68,61,95,87,75,29.86,29.69,25,6,25,0.32
2013-8-31,71,65,60,68,64,59,99,94,87,29.87,29.76,9,2,9,0.00
2013-9-1,78,68,58,70,66,55,97,92,64,29.78,29.62,14,6,15,0.39
2013-9-2,64,57,52,55,52,48,92,82,71,29.95,29.78,9,2,16,0.00
2013-9-3,75,62,48,60,54,47,97,77,48,30.00,29.87,13,3,18,0.00
2013-9-4,71,61,49,59,51,37,97,73,32,30.15,29.87,11,2,12,0.00
2013-9-5,65,56,44,58,49,42,94,79,59,30.30,30.15,15,4,15,0.00
2013-9-6,70,62,55,65,58,50,95,86,71,30.18,29.88,15,6,15,0.00
2013-9-7,81,68,58,73,66,56,98,91,73,30.02,29.80,14,2,14,0.67
2013-9-8,66,60,51,60,56,50,98,87,72,30.13,29.98,14,3,14,0.01
2013-9-9,68,65,60,66,64,58,99,94,84,29.98,29.64,14,5,14,0.02
2013-9-10,86,71,65,74,68,65,100,89,55,29.85,29.65,17,3,17,0.38
2013-9-11,72,68,60,69,65,57,98,91,74,29.91,29.83,14,4,14,0.00
2013-9-12,66,58,49,57,52,46,97,84,63,30.12,29.89,16,2,17,0.00
2013-9-13,63,52,42,47,44,40,94,74,49,30.20,30.11,13,1,13,0.00
2013-9-14,66,56,41,59,50,39,95,80,60,30.12,29.92,19,7,19,0.00
2013-9-15,62,55,41,57,51,39,97,88,73,30.24,29.90,13,2,16,0.08
2013-9-16,59,49,36,49,42,36,98,80,54,30.42,30.24,11,3,12,0.00
2013-9-17,63,53,38,56,48,37,97,84,67,30.35,30.10,18,6,18,0.00
2013-9-18,64,62,58,63,60,55,97,93,81,30.10,29.85,16,6,16,0.36
2013-9-19,67,64,63,65,64,62,99,97,94,29.86,29.65,21,7,21,0.36
2013-9-20,75,66,55,68,62,51,100,89,62,29.71,29.58,13,2,13,0.45
2013-9-21,57,51,43,51,45,39,96,81,60,29.94,29.71,12,1,12,0.00
2013-9-22,54,48,42,46,43,40,95,84,68,30.09,29.94,10,1,10,0.00
2013-9-23,58,54,46,52,48,43,92,78,70,30.15,30.07,13,5,13,0.00
2013-9-24,62,56,44,58,52,43,97,87,81,30.09,29.98,10,4,10,0.00
2013-9-25,64,53,42,58,51,42,98,91,72,30.02,29.98,8,2,8,0.01
2013-9-26,66,55,41,62,53,41,99,93,81,30.09,29.99,9,2,9,0.01
2013-9-27,69,59,46,63,56,46,99,93,81,30.14,30.05,12,3,13,0.02
2013-9-28,67,64,59,62,60,58,96,89,80,30.06,29.72,23,10,23,0.21
2013-9-29,64,57,48,58,54,48,97,88,75,29.99,29.79,14,5,14,0.01
2013-9-30,65,60,51,59,55,50,97,83,68,29.94,29.74,20,9,20,0.00
2013-10-1,73,64,58,64,58,42,93,82,51,29.82,29.64,19,7,19,0.00
2013-10-2,66,58,46,58,49,40,87,73,53,30.03,29.82,11,4,12,0.00
2013-10-3,66,58,51,57,54,49,98,89,69,29.99,29.88,11,1,12,0.16
2013-10-4,61,57,54,55,54,52,94,88,78,30.08,29.91,16,1,18,0.04
2013-10-5,59,57,54,58,55,53,98,95,89,30.08,29.78,30,4,30,0.92
2013-10-6,64,60,54,61,57,52,99,92,70,29.78,29.54,23,6,23,0.40
2013-10-7,62,52,43,53,46,40,98,81,49,30.01,29.57,18,2,18,0.12
2013-10-8,63,56,43,60,52,40,93,87,77,30.10,30.01,17,6,17,0.00
2013-10-9,65,61,55,59,57,53,95,87,77,30.13,30.05,17,8,17,0.00
2013-10-10,63,57,48,60,55,47,99,92,84,30.15,30.06,14,4,14,0.00
2013-10-11,64,57,44,60,55,44,99,93,76,30.08,29.95,16,4,16,0.01
2013-10-12,63,62,60,60,58,56,96,90,85,29.95,29.82,21,9,21,0.12
2013-11-3,47,39,28,42,35,27,97,87,76,30.30,30.17,29,12,29,0.18
2013-11-4,50,48,46,46,44,42,93,88,81,30.25,30.02,30,19,30,27.46
2013-11-5,49,46,40,46,42,36,97,88,65,30.22,29.93,10,3,12,0.41
2013-11-6,43,39,34,42,36,28,98,92,74,30.01,29.71,20,2,20,0.58
2013-11-7,38,35,30,32,29,27,88,79,70,30.10,30.01,15,4,15,0.00
2013-11-8,44,37,30,40,30,22,89,78,52,30.20,29.91,20,6,20,0.00
2013-11-9,45,42,39,43,38,33,94,86,75,29.91,29.59,28,10,30,0.30
2013-11-10,42,39,36,35,32,29,90,76,61,30.18,29.80,19,4,19,0.00
2013-11-11,40,30,24,35,22,13,96,73,47,30.45,29.96,23,5,23,0.02
2013-11-12,32,26,21,18,14,11,77,62,45,30.61,30.42,18,3,19,0.00
2013-11-13,42,32,22,34,25,15,83,74,66,30.43,29.81,25,13,25,0.00
2013-11-14,39,37,34,36,31,25,95,80,68,29.84,29.77,19,7,19,0.04
2013-11-15,44,38,30,42,36,29,97,93,87,29.85,29.78,14,4,14,0.01
2013-11-16,49,45,42,48,43,39,99,94,88,29.85,29.38,27,12,27,0.81
2013-11-17,52,47,41,52,46,34,100,97,76,29.40,29.08,28,4,29,0.47
2013-11-18,41,34,28,35,25,20,81,69,61,30.16,29.28,31,5,32,0.00
2013-11-19,39,30,21,35,24,18,90,78,65,30.36,30.16,18,4,19,0.00
2013-11-20,42,41,39,38,36,34,88,84,75,30.24,30.11,23,14,24,0.00
2013-11-21,42,38,32,38,36,30,97,92,75,30.23,30.10,19,3,19,0.06
2013-11-22,34,30,26,30,24,17,92,77,60,30.40,30.22,16,4,16,0.00
2013-11-23,26,17,11,18,6,0,83,63,44,30.63,30.30,18,4,24,0.00
2013-11-24,28,18,10,19,10,4,85,70,56,30.61,30.07,32,8,32,0.00
2013-11-25,34,31,27,30,23,14,86,73,60,30.07,29.80,24,12,26,0.00
2013-11-26,31,30,30,27,26,26,87,85,84,29.90,29.86,8,4,9,0.00
2013-11-27,27,20,14,19,15,8,92,81,56,30.20,30.10,15,6,15,0.00
2013-11-28,26,22,18,22,19,15,94,89,83,30.42,30.18,8,3,8,0.00
2013-11-29,33,24,11,28,19,9,95,84,71,30.59,30.36,24,8,24,0.00
2013-11-30,36,32,29,30,27,26,87,82,73,30.34,30.00,24,4,24,0.01
2013-12-1,35,32,30,31,29,27,95,87,78,30.12,30.00,6,0,7,0.00
2013-12-2,35,31,23,32,28,22,97,89,80,30.00,29.87,16,2,16,0.00
2013-12-3,33,28,25,30,26,24,96,92,86,29.94,29.87,22,1,22,0.00
2013-12-4,40,32,26,40,31,25,99,98,96,29.91,29.31,17,2,17,1.29
2013-12-5,40,25,11,40,19,4,99,76,59,30.13,29.31,30,12,30,0.00
2013-12-6,18,11,4,8,3,-1,86,73,54,30.43,30.12,17,6,17,0.00
2013-12-7,14,7,1,3,-1,-4,82,71,49,30.59,30.43,17,5,17,0.00
2013-12-8,13,6,-2,11,1,-7,91,81,64,30.59,30.04,9,1,9,0.00
2013-12-9,20,12,-1,14,8,-7,93,81,64,30.04,29.78,23,6,24,0.00
2013-12-10,13,4,-4,3,-2,-9,88,76,63,30.12,29.82,16,5,18,0.00
2013-12-11,11,3,-3,-1,-5,-9,81,70,52,30.41,30.13,16,5,17,0.00
2013-12-12,15,6,-5,7,-2,-10,80,71,57,30.38,30.11,19,6,20,0.00
2013-12-13,17,12,7,8,4,0,89,72,57,30.41,30.12,11,1,11,0.00
2013-12-14,15,12,7,13,8,2,92,86,75,30.40,29.90,14,1,14,0.00
2013-12-15,20,13,6,11,8,2,92,79,58,30.05,29.78,21,2,21,0.00
2013-12-16,21,10,-2,17,6,-4,88,84,69,30.15,29.90,17,4,18,0.00
2013-12-17,25,16,6,20,12,3,91,85,69,29.96,29.79,16,3,16,0.00
2013-12-18,22,17,12,17,11,6,89,78,69,30.03,29.71,13,3,15,0.00
2013-12-19,25,19,12,21,14,8,88,83,74,30.10,29.71,16,1,16,0.00
2013-12-20,22,20,18,19,17,15,92,88,82,30.05,29.86,10,1,10,0.00
2013-12-21,27,21,16,21,18,14,94,88,78,30.00,29.85,9,0,9,0.00
2013-12-22,22,20,19,20,18,15,93,89,78,30.08,29.87,13,1,14,0.00
2013-12-23,22,18,13,18,14,9,93,87,75,30.37,30.08,8,0,8,0.00
2013-12-24,20,13,6,14,8,3,89,80,66,30.48,30.32,14,3,16,0.00
2013-12-25,18,15,12,14,11,6,93,85,75,30.31,30.02,18,9,19,0.00
2013-12-26,17,12,3,13,8,0,90,83,68,30.23,29.99,11,2,11,0.00
2013-12-27,30,16,1,28,13,-2,97,90,86,30.24,29.86,24,6,24,0.00
2013-12-28,33,30,27,31,29,26,98,94,89,29.96,29.72,18,3,18,0.00
2013-12-29,33,16,-1,31,9,-6,95,75,60,30.14,29.71,20,4,22,0.00
2013-12-30,8,0,-8,-2,-7,-13,81,71,56,30.27,30.12,15,3,15,0.00
2013-12-31,8,-1,-8,-4,-9,-13,81,70,52,30.40,30.09,18,4,18,0.00
2014-1-1,13,2,-8,2,-5,-13,79,72,56,30.50,30.39,10,1,10,0.00
2014-1-2,15,4,-3,4,-3,-7,84,73,57,30.43,30.33,12,1,12,0.00